Aurora, South Dakota
Current Conditions -  °F | °C
As of 9:30 AM on Saturday 20 Dec 2014 (Local Time) from KMDS Reporting Station
Haze Haze  
Wind Chill: -8°   Ceiling: 400
Heat Index: -2°   Visibility: 2mi
Dew Point: -2°   Wind: 15mph
Humidity: 100%   Direction: 190°S
Pressure: 30.04"   Gusts: NA
Location:  44.28°N, 96.69°W
Report Text: KMDS 201530Z AUTO 19013KT 2SM BR OVC004 M02/M02 A3004 RMK AO2
Loading
Personal Weather Stations






























Interactive Weather Map New forecast layout! Learn more

10-Day Weather Forecast

Advertisements
Track Severe Weather on mobile